createdAt,value
2018-09-15T00:01:57.953Z,59.15
2018-09-15T00:04:26.334Z,59.23
2018-09-15T00:06:54.710Z,59.75
2018-09-15T00:09:23.025Z,58.25
2018-09-15T00:11:51.478Z,58.38
2018-09-15T00:14:19.848Z,57.73
2018-09-15T00:16:48.285Z,57.75
2018-09-15T00:19:16.601Z,58.17
2018-09-15T00:21:44.987Z,59.47
2018-09-15T00:24:13.416Z,58.74
2018-09-15T00:26:41.932Z,58.76
2018-09-15T00:29:10.312Z,58.81
2018-09-15T00:31:38.716Z,59.02
2018-09-15T00:34:07.117Z,59.29
2018-09-15T00:36:35.554Z,58.72
2018-09-15T00:39:05.624Z,59.39
2018-09-15T00:41:33.987Z,59.27
2018-09-15T00:44:02.318Z,59.60
2018-09-15T00:46:30.746Z,59.74
2018-09-15T00:48:59.242Z,59.21
2018-09-15T00:51:27.618Z,60.17
2018-09-15T00:53:56.134Z,59.86
2018-09-15T00:56:24.505Z,62.28
2018-09-15T00:58:52.923Z,61.25
2018-09-15T01:01:21.195Z,62.89
2018-09-15T01:03:49.697Z,61.59
2018-09-15T01:06:18.051Z,63.20
2018-09-15T01:08:46.462Z,60.88
2018-09-15T01:11:14.947Z,61.57
2018-09-15T01:13:43.239Z,63.33
2018-09-15T01:16:11.643Z,60.71
2018-09-15T01:18:39.998Z,60.97
2018-09-15T01:21:08.594Z,60.21
2018-09-15T01:23:36.967Z,59.53
2018-09-15T01:26:05.391Z,59.63
2018-09-15T01:28:33.702Z,60.46
2018-09-15T01:31:02.027Z,62.36
2018-09-15T01:33:30.410Z,59.65
2018-09-15T01:35:58.794Z,60.72
2018-09-15T01:38:27.193Z,60.18
2018-09-15T01:40:55.532Z,61.17
2018-09-15T01:43:23.863Z,60.07
2018-09-15T01:45:52.221Z,60.10
2018-09-15T01:48:20.548Z,60.80
2018-09-15T01:50:48.923Z,60.31
2018-09-15T01:53:17.267Z,61.82
2018-09-15T01:55:45.605Z,60.90
2018-09-15T01:58:13.901Z,60.54
2018-09-15T02:00:42.374Z,60.67
2018-09-15T02:03:10.748Z,60.28
2018-09-15T02:05:39.090Z,60.64
2018-09-15T02:08:07.470Z,61.23
2018-09-15T02:10:35.811Z,59.95
2018-09-15T02:13:04.206Z,60.17
2018-09-15T02:15:32.578Z,59.21
2018-09-15T02:18:00.948Z,60.18
2018-09-15T02:20:29.465Z,60.35
2018-09-15T02:22:57.870Z,59.89
2018-09-15T02:25:26.198Z,59.89
2018-09-15T02:27:54.530Z,60.79
2018-09-15T02:30:22.880Z,60.55
2018-09-15T02:32:51.188Z,61.29
2018-09-15T02:35:19.547Z,60.37
2018-09-15T02:37:47.862Z,60.80
2018-09-15T02:40:16.283Z,60.43
2018-09-15T02:42:44.570Z,59.98
2018-09-15T02:45:12.907Z,60.00
2018-09-15T02:47:41.231Z,62.00
2018-09-15T02:50:09.635Z,61.07
2018-09-15T02:52:37.974Z,63.04
2018-09-15T02:55:06.353Z,63.11
2018-09-15T02:57:34.993Z,61.24
2018-09-15T03:02:42.744Z,60.49
2018-09-15T03:05:11.140Z,61.38
2018-09-15T03:07:39.545Z,59.93
2018-09-15T03:10:07.954Z,62.01
2018-09-15T03:12:36.267Z,62.95
2018-09-15T03:15:04.755Z,64.33
2018-09-15T03:17:33.103Z,63.11
2018-09-15T03:20:01.415Z,64.64
2018-09-15T03:22:29.834Z,61.86
2018-09-15T03:24:58.235Z,62.29
2018-09-15T03:27:26.556Z,64.94
2018-09-15T03:29:54.928Z,65.02
2018-09-15T03:32:23.318Z,64.08
2018-09-15T03:34:51.740Z,62.24
2018-09-15T03:37:20.154Z,61.92
2018-09-15T03:39:48.526Z,63.81
2018-09-15T03:42:16.892Z,63.01
2018-09-15T03:44:45.311Z,63.66
2018-09-15T03:47:13.679Z,62.03
2018-09-15T03:49:42.046Z,63.20
2018-09-15T03:52:10.454Z,62.24
2018-09-15T03:54:38.813Z,62.03
2018-09-15T03:57:07.238Z,62.71
2018-09-15T03:59:35.643Z,61.43
2018-09-15T04:02:04.055Z,62.39
2018-09-15T04:04:32.413Z,62.82
2018-09-15T04:07:00.857Z,62.78
2018-09-15T04:09:29.259Z,61.91
2018-09-15T04:11:57.703Z,62.17
2018-09-15T04:14:26.103Z,61.79
2018-09-15T04:16:54.680Z,61.94
2018-09-15T04:19:23.063Z,62.96
2018-09-15T04:21:51.610Z,61.41
2018-09-15T04:24:20.016Z,61.19
2018-09-15T04:26:48.441Z,63.55
2018-09-15T04:29:16.828Z,62.68
2018-09-15T04:31:45.253Z,61.94
2018-09-15T04:34:13.651Z,61.89
2018-09-15T04:36:42.030Z,61.53
2018-09-15T04:39:11.971Z,61.86
2018-09-15T04:41:40.736Z,62.72
2018-09-15T04:44:08.992Z,61.96
2018-09-15T04:46:37.418Z,63.28
2018-09-15T04:49:05.904Z,62.70
2018-09-15T04:51:34.343Z,62.62
2018-09-15T04:54:02.662Z,64.39
2018-09-15T04:56:31.027Z,63.11
2018-09-15T04:58:59.484Z,62.46
2018-09-15T05:01:27.850Z,62.31
2018-09-15T05:03:56.297Z,64.69
2018-09-15T05:06:24.749Z,63.50
2018-09-15T05:08:53.234Z,61.04
2018-09-15T05:11:21.807Z,62.06
2018-09-15T05:13:50.351Z,62.15
2018-09-15T05:16:18.755Z,61.93
2018-09-15T05:18:47.326Z,62.53
2018-09-15T05:21:15.737Z,61.25
2018-09-15T05:23:44.179Z,61.27
2018-09-15T05:26:12.541Z,60.78
2018-09-15T05:28:40.914Z,60.60
2018-09-15T05:31:09.355Z,60.32
2018-09-15T05:33:37.730Z,61.04
2018-09-15T05:36:06.139Z,60.52
2018-09-15T05:38:34.523Z,60.22
2018-09-15T05:41:02.955Z,61.42
2018-09-15T05:43:31.381Z,60.30
2018-09-15T05:45:59.777Z,59.94
2018-09-15T05:48:28.224Z,59.78
2018-09-15T05:50:56.616Z,59.91
2018-09-15T05:53:25.035Z,60.06
2018-09-15T05:55:53.585Z,59.80
2018-09-15T05:58:21.867Z,59.04
2018-09-15T06:00:50.238Z,60.28
2018-09-15T06:03:18.618Z,63.05
2018-09-15T06:05:47.015Z,61.33
2018-09-15T06:08:15.378Z,60.57
2018-09-15T06:10:44.043Z,61.97
2018-09-15T06:13:12.339Z,59.91
2018-09-15T06:15:40.747Z,59.54
2018-09-15T06:18:09.186Z,58.02
2018-09-15T06:20:37.603Z,59.29
2018-09-15T06:23:06.123Z,57.99
2018-09-15T06:25:34.543Z,56.84
2018-09-15T06:28:02.966Z,52.72
2018-09-15T06:30:31.358Z,49.68
2018-09-15T06:32:59.762Z,47.87
2018-09-15T06:35:28.170Z,46.94
2018-09-15T06:37:56.691Z,47.15
2018-09-15T06:40:25.150Z,46.40
2018-09-15T06:42:53.539Z,46.55
2018-09-15T06:45:21.983Z,46.32
2018-09-15T06:47:50.355Z,47.09
2018-09-15T06:50:18.760Z,49.41
2018-09-15T06:52:47.162Z,49.79
2018-09-15T06:55:15.700Z,47.33
2018-09-15T06:57:44.082Z,45.05
2018-09-15T07:00:12.523Z,47.41
2018-09-15T07:02:40.950Z,46.34
2018-09-15T07:05:09.374Z,44.99
2018-09-15T07:07:37.776Z,42.58
2018-09-15T07:10:06.190Z,43.08
2018-09-15T07:12:34.647Z,42.42
2018-09-15T07:15:03.111Z,42.72
2018-09-15T07:17:31.495Z,40.97
2018-09-15T07:19:59.925Z,42.09
2018-09-15T07:22:28.308Z,40.90
2018-09-15T07:24:56.734Z,41.42
2018-09-15T07:27:26.081Z,39.51
2018-09-15T07:29:54.531Z,37.56
2018-09-15T07:32:22.936Z,39.28
2018-09-15T07:34:51.407Z,40.50
2018-09-15T07:37:19.782Z,38.40
2018-09-15T07:39:48.286Z,39.41
2018-09-15T07:42:16.687Z,38.55
2018-09-15T07:44:45.228Z,37.71
2018-09-15T07:47:13.538Z,34.96
2018-09-15T07:49:41.951Z,38.89
2018-09-15T07:52:10.355Z,37.69
2018-09-15T07:54:38.729Z,37.24
2018-09-15T07:57:07.086Z,37.55
2018-09-15T07:59:35.462Z,39.00
2018-09-15T08:02:08.081Z,39.33
2018-09-15T08:04:36.488Z,40.44
2018-09-15T08:07:05.035Z,38.23
2018-09-15T08:09:33.461Z,38.22
2018-09-15T08:12:01.858Z,36.66
2018-09-15T08:14:30.239Z,35.95
2018-09-15T08:16:58.655Z,34.29
2018-09-15T08:19:27.064Z,35.94
2018-09-15T08:21:55.544Z,36.82
2018-09-15T08:24:24.973Z,36.53
2018-09-15T08:26:53.476Z,35.94
2018-09-15T08:29:22.155Z,34.04
2018-09-15T08:31:50.902Z,35.11
2018-09-15T08:34:19.299Z,34.58
2018-09-15T08:36:47.690Z,33.64
2018-09-15T08:39:16.074Z,34.32
2018-09-15T08:41:44.491Z,33.77
2018-09-15T08:44:12.884Z,31.60
2018-09-15T08:46:41.291Z,31.76
2018-09-15T08:49:10.743Z,31.71
2018-09-15T08:51:39.142Z,32.60
2018-09-15T08:54:07.533Z,32.00
2018-09-15T08:56:35.997Z,29.46
2018-09-15T08:59:04.405Z,29.11
2018-09-15T09:01:32.716Z,26.78
2018-09-15T09:04:01.152Z,27.28
2018-09-15T09:06:29.509Z,28.40
2018-09-15T09:08:57.886Z,27.96
2018-09-15T09:11:26.311Z,29.37
2018-09-15T09:13:54.725Z,29.19
2018-09-15T09:16:23.134Z,28.32
2018-09-15T09:18:51.575Z,29.09
2018-09-15T09:21:20.213Z,30.15
2018-09-15T09:23:48.645Z,28.81
2018-09-15T09:26:17.170Z,30.18
2018-09-15T09:28:45.514Z,30.83
2018-09-15T09:31:13.951Z,31.17
2018-09-15T09:33:42.399Z,32.71
2018-09-15T09:36:10.970Z,31.08
2018-09-15T09:38:39.447Z,32.11
2018-09-15T09:41:08.935Z,32.26
2018-09-15T09:43:37.365Z,33.11
2018-09-15T09:46:05.765Z,31.79
2018-09-15T09:48:34.166Z,30.89
2018-09-15T09:51:02.561Z,31.35
2018-09-15T09:53:30.975Z,31.80
2018-09-15T09:55:59.391Z,30.32
2018-09-15T09:58:27.847Z,33.71
2018-09-15T10:00:58.075Z,33.07
2018-09-15T10:03:27.530Z,35.04
2018-09-15T10:05:55.985Z,34.67
2018-09-15T10:08:24.407Z,33.91
2018-09-15T10:10:52.800Z,35.55
2018-09-15T10:13:21.205Z,35.03
2018-09-15T10:15:49.624Z,34.25
2018-09-15T10:18:17.996Z,33.99
2018-09-15T10:20:46.379Z,33.60
2018-09-15T10:23:14.841Z,31.49
2018-09-15T10:25:43.235Z,31.97
2018-09-15T10:28:11.615Z,30.62
2018-09-15T10:30:40.027Z,31.87
2018-09-15T10:33:08.483Z,31.66
2018-09-15T10:35:36.902Z,32.59
2018-09-15T10:38:05.316Z,31.68
2018-09-15T10:40:33.849Z,32.04
2018-09-15T10:43:02.156Z,32.72
2018-09-15T10:45:30.621Z,31.63
2018-09-15T10:47:59.035Z,32.72
2018-09-15T10:50:27.489Z,32.24
2018-09-15T10:52:56.333Z,30.12
2018-09-15T10:55:24.818Z,31.90
2018-09-15T10:57:53.187Z,31.43
2018-09-15T11:00:21.757Z,31.61
2018-09-15T11:02:50.157Z,30.31
2018-09-15T11:05:18.587Z,30.44
2018-09-15T11:07:47.115Z,30.39
2018-09-15T11:10:15.496Z,29.73
2018-09-15T11:12:43.886Z,29.72
2018-09-15T11:15:12.269Z,30.51
2018-09-15T11:17:40.700Z,30.62
2018-09-15T11:20:09.108Z,33.32
2018-09-15T11:22:37.484Z,34.75
2018-09-15T11:25:05.870Z,36.94
2018-09-15T11:27:34.261Z,37.82
2018-09-15T11:30:02.619Z,38.80
2018-09-15T11:32:31.059Z,38.28
2018-09-15T11:34:59.445Z,34.51
2018-09-15T11:37:28.028Z,35.37
2018-09-15T11:39:56.422Z,36.55
2018-09-15T11:42:24.911Z,38.01
2018-09-15T11:44:53.359Z,38.23
2018-09-15T11:47:21.799Z,36.90
2018-09-15T11:49:50.217Z,36.08
2018-09-15T11:52:18.671Z,34.59
2018-09-15T11:54:47.116Z,32.74
2018-09-15T11:57:15.470Z,31.47
2018-09-15T11:59:43.898Z,31.97
2018-09-15T12:02:12.243Z,32.51
2018-09-15T12:04:40.675Z,33.57
2018-09-15T12:07:08.964Z,31.72
2018-09-15T12:09:37.440Z,33.65
2018-09-15T12:12:05.974Z,37.32
2018-09-15T12:14:34.400Z,38.71
2018-09-15T12:17:02.892Z,38.96
2018-09-15T12:19:31.410Z,39.08
2018-09-15T12:21:59.815Z,40.24
2018-09-15T12:24:28.242Z,40.34
2018-09-15T12:26:56.635Z,41.54
2018-09-15T12:29:25.174Z,43.53
2018-09-15T12:31:53.641Z,42.80
2018-09-15T12:34:22.054Z,43.54
2018-09-15T12:37:00.620Z,41.74
2018-09-15T12:42:06.034Z,42.25
2018-09-15T12:44:34.307Z,43.15
2018-09-15T12:47:02.586Z,42.49
2018-09-15T12:49:30.895Z,41.40
2018-09-15T12:51:59.304Z,42.27
2018-09-15T12:54:27.698Z,40.53
2018-09-15T12:56:56.120Z,41.68
2018-09-15T12:59:24.513Z,42.82
2018-09-15T13:01:52.987Z,42.32
2018-09-15T13:04:21.357Z,42.81
2018-09-15T13:06:50.061Z,44.73
2018-09-15T13:09:18.370Z,44.92
2018-09-15T13:11:46.746Z,45.35
2018-09-15T13:14:15.151Z,46.86
2018-09-15T13:16:43.578Z,46.91
2018-09-15T13:19:12.022Z,44.88
2018-09-15T13:21:40.439Z,44.54
2018-09-15T13:24:08.850Z,43.51
2018-09-15T13:26:37.255Z,45.49
2018-09-15T13:29:05.814Z,45.75
2018-09-15T13:31:34.314Z,46.55
2018-09-15T13:34:02.853Z,47.06
2018-09-15T13:36:31.249Z,46.68
2018-09-15T13:38:59.839Z,46.84
2018-09-15T13:41:28.257Z,46.47
2018-09-15T13:43:56.697Z,47.42
2018-09-15T13:46:25.078Z,45.71
2018-09-15T13:48:53.532Z,45.85
2018-09-15T13:51:21.883Z,46.04
2018-09-15T13:53:50.275Z,46.98
2018-09-15T13:56:18.690Z,45.55
2018-09-15T13:58:47.038Z,45.28
2018-09-15T14:01:15.383Z,46.80
2018-09-15T14:03:43.761Z,46.26
2018-09-15T14:06:12.180Z,45.40
2018-09-15T14:08:40.754Z,46.71
2018-09-15T14:11:09.136Z,47.27
2018-09-15T14:13:37.519Z,47.76
2018-09-15T14:16:05.950Z,49.27
2018-09-15T14:18:34.338Z,49.76
2018-09-15T14:21:02.785Z,49.40
2018-09-15T14:23:31.176Z,47.81
2018-09-15T14:25:59.601Z,46.50
2018-09-15T14:28:28.013Z,47.44
2018-09-15T14:30:56.411Z,46.26
2018-09-15T14:33:24.833Z,46.39
2018-09-15T14:35:53.190Z,46.15
2018-09-15T14:38:21.679Z,46.46
2018-09-15T14:40:50.189Z,44.10
2018-09-15T14:43:18.619Z,42.78
2018-09-15T14:45:47.078Z,41.18
2018-09-15T14:48:15.588Z,41.45
2018-09-15T14:50:43.938Z,41.62
2018-09-15T14:53:12.361Z,41.72
2018-09-15T14:55:40.802Z,41.03
2018-09-15T14:58:09.242Z,41.92
2018-09-15T15:00:37.666Z,40.61
2018-09-15T15:03:07.887Z,41.97
2018-09-15T15:05:36.231Z,38.96
2018-09-15T15:08:04.852Z,41.79
2018-09-15T15:10:33.297Z,42.11
2018-09-15T15:13:01.671Z,43.54
2018-09-15T15:15:30.060Z,42.93
2018-09-15T15:17:58.459Z,44.58
2018-09-15T15:20:26.862Z,44.32
2018-09-15T15:22:55.274Z,43.91
2018-09-15T15:25:23.650Z,45.42
2018-09-15T15:27:52.011Z,44.42
2018-09-15T15:30:20.450Z,45.79
2018-09-15T15:32:48.898Z,44.53
2018-09-15T15:35:23.891Z,43.21
2018-09-15T15:37:52.115Z,44.38
2018-09-15T15:40:20.438Z,43.75
2018-09-15T15:42:48.738Z,44.48
2018-09-15T15:45:17.047Z,47.03
2018-09-15T15:47:45.361Z,46.90
2018-09-15T15:50:13.700Z,46.99
2018-09-15T15:52:41.983Z,44.64
2018-09-15T15:55:10.270Z,46.59
2018-09-15T15:57:38.548Z,45.80
2018-09-15T16:00:07.093Z,46.96
2018-09-15T16:02:35.614Z,47.57
2018-09-15T16:05:03.952Z,47.77
2018-09-15T16:07:32.348Z,45.80
2018-09-15T16:10:00.658Z,47.74
2018-09-15T16:12:28.991Z,47.89
2018-09-15T16:14:57.277Z,47.39
2018-09-15T16:17:25.535Z,47.58
2018-09-15T16:19:53.805Z,46.26
2018-09-15T16:22:22.145Z,46.04
2018-09-15T16:24:50.444Z,46.38
2018-09-15T16:27:18.694Z,46.42
2018-09-15T16:29:46.963Z,46.69
2018-09-15T16:32:15.238Z,46.38
2018-09-15T16:34:43.514Z,46.22
2018-09-15T16:37:11.800Z,47.23
2018-09-15T16:39:40.064Z,46.23
2018-09-15T16:42:08.328Z,46.73
2018-09-15T16:44:36.696Z,46.94
2018-09-15T16:47:05.295Z,47.56
2018-09-15T16:49:33.686Z,47.71
2018-09-15T16:52:02.058Z,48.30
2018-09-15T16:54:30.392Z,47.78
2018-09-15T16:56:58.846Z,48.96
2018-09-15T16:59:27.131Z,47.38
2018-09-15T17:01:55.534Z,48.19
2018-09-15T17:04:23.951Z,46.47
2018-09-15T17:06:52.302Z,46.98
2018-09-15T17:09:20.698Z,47.70
2018-09-15T17:11:49.111Z,47.39
2018-09-15T17:14:17.470Z,47.22
2018-09-15T17:16:45.976Z,48.49
2018-09-15T17:19:14.266Z,48.66
2018-09-15T17:21:42.667Z,48.98
2018-09-15T17:24:11.048Z,50.10
2018-09-15T17:26:39.512Z,50.32
2018-09-15T17:29:07.915Z,51.59
2018-09-15T17:31:36.324Z,51.25
2018-09-15T17:34:04.693Z,51.32
2018-09-15T17:36:33.051Z,51.10
2018-09-15T17:39:01.415Z,50.91
2018-09-15T17:41:29.774Z,50.88
2018-09-15T17:43:58.159Z,50.49
2018-09-15T17:46:26.524Z,52.21
2018-09-15T17:48:54.956Z,53.45
2018-09-15T17:51:23.337Z,55.41
2018-09-15T17:53:51.740Z,55.35
2018-09-15T17:56:20.267Z,55.30
2018-09-15T17:58:48.643Z,55.39
2018-09-15T18:01:17.012Z,55.45
2018-09-15T18:03:45.400Z,56.86
2018-09-15T18:06:13.890Z,56.93
2018-09-15T18:08:42.250Z,56.66
2018-09-15T18:11:10.644Z,57.57
2018-09-15T18:13:39.056Z,58.04
2018-09-15T18:16:07.506Z,58.25
2018-09-15T18:18:35.887Z,57.26
2018-09-15T18:21:04.303Z,58.60
2018-09-15T18:23:32.774Z,57.65
2018-09-15T18:26:01.167Z,57.15
2018-09-15T18:28:29.524Z,58.30
2018-09-15T18:30:57.919Z,57.30
2018-09-15T18:33:26.316Z,57.62
2018-09-15T18:35:54.743Z,59.03
2018-09-15T18:38:23.127Z,60.24
2018-09-15T18:40:51.498Z,59.34
2018-09-15T18:43:19.905Z,58.00
2018-09-15T18:45:48.247Z,58.60
2018-09-15T18:48:16.636Z,57.64
2018-09-15T18:50:45.086Z,58.65
2018-09-15T18:53:13.411Z,59.04
2018-09-15T18:55:41.836Z,57.43
2018-09-15T18:58:10.261Z,57.87
2018-09-15T19:00:38.579Z,58.70
2018-09-15T19:03:06.993Z,58.99
2018-09-15T19:05:35.337Z,59.22
2018-09-15T19:08:03.711Z,58.78
2018-09-15T19:10:32.107Z,57.58
2018-09-15T19:13:00.587Z,56.32
2018-09-15T19:15:28.980Z,57.22
2018-09-15T19:17:57.342Z,57.50
2018-09-15T19:20:25.790Z,58.87
2018-09-15T19:22:54.127Z,58.76
2018-09-15T19:25:22.547Z,58.43
2018-09-15T19:27:50.928Z,60.17
2018-09-15T19:30:19.388Z,58.05
2018-09-15T19:32:47.808Z,58.35
2018-09-15T19:35:16.190Z,59.50
2018-09-15T19:37:44.619Z,58.89
2018-09-15T19:40:12.989Z,59.35
2018-09-15T19:42:41.328Z,59.87
2018-09-15T19:45:09.731Z,58.78
2018-09-15T19:47:38.028Z,59.33
2018-09-15T19:50:06.418Z,58.60
2018-09-15T19:52:34.941Z,59.17
2018-09-15T19:55:03.311Z,59.87
2018-09-15T19:57:32.415Z,59.43
2018-09-15T20:00:00.823Z,61.16
2018-09-15T20:02:29.249Z,60.12
2018-09-15T20:04:57.674Z,59.96
2018-09-15T20:07:26.004Z,59.72
2018-09-15T20:09:54.368Z,61.02
2018-09-15T20:12:22.741Z,62.66
2018-09-15T20:14:51.095Z,62.05
2018-09-15T20:17:18.344Z,62.29
2018-09-15T20:19:45.594Z,62.05
2018-09-15T20:22:14.122Z,61.18
2018-09-15T20:24:42.474Z,61.18
2018-09-15T20:27:10.831Z,60.96
2018-09-15T20:29:39.218Z,62.04
2018-09-15T20:32:07.580Z,61.87
2018-09-15T20:34:36.296Z,60.78
2018-09-15T20:37:04.635Z,60.37
2018-09-15T20:39:32.994Z,61.79
2018-09-15T20:42:01.378Z,61.40
2018-09-15T20:44:29.736Z,60.98
2018-09-15T20:46:58.075Z,59.66
2018-09-15T20:49:26.435Z,59.48
2018-09-15T20:51:54.795Z,61.38
2018-09-15T20:54:23.288Z,61.05
2018-09-15T20:56:51.672Z,59.77
2018-09-15T20:59:20.086Z,61.75
2018-09-15T21:01:48.438Z,61.61
2018-09-15T21:04:16.814Z,61.87
2018-09-15T21:06:45.150Z,62.17
2018-09-15T21:09:13.502Z,62.16
2018-09-15T21:11:41.845Z,62.16
2018-09-15T21:14:10.237Z,61.56
2018-09-15T21:16:38.642Z,59.98
2018-09-15T21:19:07.029Z,60.41
2018-09-15T21:21:35.427Z,61.84
2018-09-15T21:24:03.802Z,61.16
2018-09-15T21:26:32.165Z,62.07
2018-09-15T21:29:00.574Z,61.25
2018-09-15T21:31:28.915Z,62.25
2018-09-15T21:33:57.369Z,61.64
2018-09-15T21:36:25.777Z,61.75
2018-09-15T21:38:54.114Z,61.49
2018-09-15T21:41:22.443Z,62.70
2018-09-15T21:43:50.785Z,62.37
2018-09-15T21:46:19.113Z,62.11
2018-09-15T21:48:47.502Z,63.07
2018-09-15T21:51:15.940Z,62.94
2018-09-15T21:53:44.417Z,62.53
2018-09-15T21:56:12.738Z,62.42
2018-09-15T21:58:41.132Z,63.08
2018-09-15T22:01:09.405Z,61.92
2018-09-15T22:03:43.130Z,63.38
2018-09-15T22:06:11.515Z,62.83
2018-09-15T22:08:39.854Z,64.17
2018-09-15T22:11:08.186Z,64.35
2018-09-15T22:13:36.614Z,63.93
2018-09-15T22:16:05.026Z,62.00
2018-09-15T22:18:33.319Z,62.58
2018-09-15T22:21:01.710Z,63.08
2018-09-15T22:23:30.065Z,63.40
2018-09-15T22:25:58.655Z,64.31
2018-09-15T22:28:27.045Z,62.79
2018-09-15T22:30:56.167Z,62.85
2018-09-15T22:33:24.561Z,63.06
2018-09-15T22:35:52.914Z,61.62
2018-09-15T22:38:21.304Z,63.95
2018-09-15T22:40:50.991Z,62.16
2018-09-15T22:43:19.276Z,62.73
2018-09-15T22:45:47.913Z,62.23
2018-09-15T22:48:17.151Z,62.18
2018-09-15T22:50:45.571Z,61.92
2018-09-15T22:53:14.702Z,62.77
2018-09-15T22:55:43.124Z,65.03
2018-09-15T22:58:11.537Z,64.91
2018-09-15T23:00:39.942Z,62.75
2018-09-15T23:03:08.333Z,62.32
2018-09-15T23:05:36.785Z,63.57
2018-09-15T23:08:05.888Z,64.43
2018-09-15T23:10:34.235Z,62.99
2018-09-15T23:13:03.364Z,63.02
2018-09-15T23:15:32.440Z,62.88
2018-09-15T23:18:01.681Z,63.50
2018-09-15T23:20:30.937Z,62.93
2018-09-15T23:22:59.479Z,63.21
2018-09-15T23:25:27.911Z,63.78
2018-09-15T23:27:56.434Z,63.56
2018-09-15T23:30:24.825Z,64.32
2018-09-15T23:32:53.248Z,63.81
2018-09-15T23:35:28.764Z,62.92
2018-09-15T23:37:57.102Z,64.70
2018-09-15T23:40:25.423Z,63.80
2018-09-15T23:42:53.674Z,64.44
2018-09-15T23:45:22.024Z,64.14
2018-09-15T23:47:50.373Z,63.90
2018-09-15T23:50:18.641Z,65.66
2018-09-15T23:52:46.936Z,63.64
2018-09-15T23:55:15.207Z,64.27
2018-09-15T23:57:43.498Z,64.87
